Celebrity Constellation — 9HJB9 — position and weather

sailwx.info

Track history (hours):
 
Tides and Currents Weather Stations Pressure Air Temp Water Temp Dewpoint Dewpoint Depression Visibility Wind Speed Wind Dir Waves Ship Positions

Celebrity Constellation

Last reported at 2018-Oct-23 16:21 UTC. Time now 2018-Oct-24 04:37 UTC.
Position N 36°31' W 006°26'.

Length 294 m; draft 8.3 m.

Type: Passenger vessel. MMSI: 249046000.

Date/timePositionNaut miles runAvg speedWind from/ knotsBaromVisibWave heightAir tempDewpointWater temp
2018-Oct-23 16:21N 36°31' W 006°26'2 7.7
2018-Oct-23 16:02N 36°32' W 006°24'0 7.6
2018-Oct-23 15:59N 36°32' W 006°23'4 7.6
2018-Oct-23 15:30N 36°34' W 006°19'2 4.3
2018-Oct-23 15:03N 36°32' W 006°17'0 0.3
2018-Oct-23 14:59N 36°32' W 006°17'0 0.0
2018-Oct-23 14:03N 36°32' W 006°17'0 0.0
2018-Oct-23 13:24N 36°32' W 006°17'0 0.0
2018-Oct-23 12:54N 36°32' W 006°17'0 0.0
2018-Oct-23 12:30N 36°32' W 006°17'0 0.0
2018-Oct-23 12:00N 36°32' W 006°17'0 0.0
2018-Oct-23 11:27N 36°32' W 006°17'0 0.0
2018-Oct-23 11:03N 36°32' W 006°17'0 0.0
2018-Oct-23 11:00N 36°32' W 006°17'0 0.0
2018-Oct-23 10:30N 36°32' W 006°17'0 0.0
2018-Oct-23 10:03N 36°32' W 006°17'0 0.0
2018-Oct-23 09:51N 36°32' W 006°17'0 0.0
2018-Oct-23 09:23N 36°32' W 006°17'0 0.0
2018-Oct-23 08:59N 36°32' W 006°17'0 0.0
2018-Oct-23 08:29N 36°32' W 006°17'0 0.0
2018-Oct-23 08:03N 36°32' W 006°17'0 0.0
2018-Oct-23 08:00N 36°32' W 006°17'0 0.0
2018-Oct-23 07:19N 36°32' W 006°17'0 0.0
2018-Oct-23 07:01N 36°32' W 006°17'0 0.0
2018-Oct-23 06:58N 36°32' W 006°17'0 0.0
2018-Oct-23 06:28N 36°32' W 006°17'0 0.0
2018-Oct-23 06:01N 36°32' W 006°17'0 0.0
2018-Oct-23 05:58N 36°32' W 006°17'0 0.0
2018-Oct-23 05:28N 36°32' W 006°17'0 0.0
2018-Oct-23 05:03N 36°32' W 006°17'0 0.0
2018-Oct-23 05:00N 36°32' W 006°17'0 0.9
2018-Oct-23 04:30N 36°32' W 006°17'2 4.3
2018-Oct-23 04:03N 36°33' W 006°19'0 7.0
2018-Oct-23 04:00N 36°33' W 006°19'511.0
2018-Oct-23 03:30N 36°30' W 006°25'52 9.2
2018-Oct-22 21:53N 35°58' W 005°34'513.3
2018-Oct-22 21:30N 35°60' W 005°28'612.9
2018-Oct-22 21:03N 36°02' W 005°21'113.0
2018-Oct-22 21:00N 36°02' W 005°20'713.5
2018-Oct-22 20:30N 36°04' W 005°13'613.7
2018-Oct-22 20:03N 36°07' W 005°05'113.4
2018-Oct-22 20:00N 36°07' W 005°05'215 8.8
2018-Oct-21 19:44N 37°05' W 000°47'518.2
2018-Oct-21 19:27N 37°08' W 000°42'21018.3
2018-Oct-21 07:57N 38°54' E 003°08'20419.0
2018-Oct-20 21:11N 40°52' E 006°45'319.1
2018-Oct-20 21:03N 40°54' E 006°48'118.9
2018-Oct-20 21:00N 40°54' E 006°49'8118.7
2018-Oct-20 16:39N 41°42' E 008°17'318.9
2018-Oct-20 16:30N 41°43' E 008°20'818.8
2018-Oct-20 16:03N 41°47' E 008°30'119.1
2018-Oct-20 16:00N 41°48' E 008°31'1317.6
2018-Oct-20 15:17N 41°55' E 008°45'1 2.4
2018-Oct-20 14:56N 41°55' E 008°44'6 0.5
2018-Oct-20 03:17N 41°50' E 008°40'313.7
2018-Oct-20 03:03N 41°48' E 008°38'114.3
2018-Oct-20 03:00N 41°47' E 008°37'713.9
2018-Oct-20 02:30N 41°40' E 008°38'614.3
2018-Oct-20 02:03N 41°35' E 008°41'114.6
2018-Oct-20 02:00N 41°34' E 008°42'1014.4
2018-Oct-20 01:17N 41°25' E 008°49'6413.4
2018-Oct-19 20:28N 41°33' E 010°14'4914.8
2018-Oct-19 17:11N 41°55' E 011°13'122 5.5
2018-Oct-18 18:57N 40°52' E 013°32'817.8
2018-Oct-18 18:29N 40°46' E 013°40'818.0
2018-Oct-18 18:03N 40°41' E 013°47'118.0
2018-Oct-18 18:00N 40°40' E 013°48'917.2
2018-Oct-18 17:30N 40°39' E 013°60'716.4
2018-Oct-18 17:04N 40°42' E 014°08'117.6
2018-Oct-18 17:01N 40°42' E 014°09'816.4
2018-Oct-18 16:30N 40°48' E 014°17'2 3.8
2018-Oct-18 16:01N 40°50' E 014°16'0 0.0
2018-Oct-18 15:58N 40°50' E 014°16'0 0.0
2018-Oct-18 15:28N 40°50' E 014°16'0 0.0
2018-Oct-18 15:01N 40°50' E 014°16'0 0.0
2018-Oct-18 14:58N 40°50' E 014°16'0 0.0
2018-Oct-18 14:01N 40°50' E 014°16'0 0.0
2018-Oct-18 13:58N 40°50' E 014°16'0 0.0
2018-Oct-18 13:28N 40°50' E 014°16'0 0.0
2018-Oct-18 13:01N 40°50' E 014°16'0 0.0
2018-Oct-18 12:58N 40°50' E 014°16'0 0.0
2018-Oct-18 12:28N 40°50' E 014°16'0 0.0
2018-Oct-18 12:01N 40°50' E 014°16'0 0.0
2018-Oct-18 11:58N 40°50' E 014°16'0 0.0
2018-Oct-18 11:28N 40°50' E 014°16'0 0.0
2018-Oct-18 11:01N 40°50' E 014°16'0 0.0
2018-Oct-18 10:58N 40°50' E 014°16'0 0.0
2018-Oct-18 10:25N 40°50' E 014°16'0 0.0
2018-Oct-18 10:01N 40°50' E 014°16'0 0.0
2018-Oct-18 09:58N 40°50' E 014°16'0 0.0
2018-Oct-18 09:28N 40°50' E 014°16'0 0.0
2018-Oct-18 09:03N 40°50' E 014°16'0 0.0
2018-Oct-18 09:00N 40°50' E 014°16'0 0.0
2018-Oct-18 08:29N 40°50' E 014°16'0 0.0
2018-Oct-18 08:02N 40°50' E 014°16'0 0.0
2018-Oct-18 07:59N 40°50' E 014°16'0 0.0
2018-Oct-18 07:29N 40°50' E 014°16'0 0.0
2018-Oct-18 07:02N 40°50' E 014°16'0 0.0
2018-Oct-18 06:56N 40°50' E 014°16'0 0.0
2018-Oct-18 06:29N 40°50' E 014°16'0 0.0
2018-Oct-18 06:02N 40°50' E 014°16'0 0.0
2018-Oct-18 05:59N 40°50' E 014°16'0 0.0
2018-Oct-18 05:29N 40°50' E 014°16'0 0.0
2018-Oct-18 05:02N 40°50' E 014°16'0 0.0
2018-Oct-18 04:59N 40°50' E 014°16'0 0.1
2018-Oct-18 04:30N 40°50' E 014°16'1 2.9
2018-Oct-18 04:03N 40°49' E 014°17'0 8.1
2018-Oct-18 04:01N 40°49' E 014°17'816.1
2018-Oct-18 03:31N 40°41' E 014°17'916.9
2018-Oct-18 02:59N 40°32' E 014°19'918.4
2018-Oct-18 02:31N 40°25' E 014°24'818.1
2018-Oct-18 02:04N 40°17' E 014°29'117.9
2018-Oct-18 02:01N 40°16' E 014°29'917.7
2018-Oct-18 01:30N 40°08' E 014°34'817.8
2018-Oct-18 01:03N 40°01' E 014°38'118.2
2018-Oct-18 01:01N 40°00' E 014°39'9318.1
2018-Oct-17 19:51N 38°37' E 015°33'718.7
2018-Oct-17 19:29N 38°31' E 015°37'818.7
2018-Oct-17 19:03N 38°23' E 015°40'118.6
2018-Oct-17 19:00N 38°22' E 015°41'912.2
2018-Oct-17 18:18N 38°14' E 015°37'416.1
2018-Oct-17 18:03N 38°10' E 015°38'0 6.4
2018-Oct-17 18:00N 38°10' E 015°38'1 1.3
2018-Oct-17 17:31N 38°09' E 015°38'4 8.2
2018-Oct-17 17:02N 38°06' E 015°36'117.5
2018-Oct-17 17:00N 38°05' E 015°36'917.0
2018-Oct-17 16:30N 37°56' E 015°36'1016.2
2018-Oct-17 15:52N 37°51' E 015°47'617.4
2018-Oct-17 15:30N 37°50' E 015°55'37016.8
2018-Oct-16 17:31N 37°16' E 023°40'020.3
2018-Oct-16 17:30N 37°16' E 023°40'1518.8
2018-Oct-16 16:43N 37°31' E 023°42'418.7
2018-Oct-16 16:30N 37°35' E 023°42'818.3
2018-Oct-16 16:03N 37°43' E 023°40'118.8
2018-Oct-16 16:00N 37°44' E 023°39'918.5
2018-Oct-16 15:30N 37°53' E 023°36'4 8.3
2018-Oct-16 15:03N 37°56' E 023°37'0 1.2
2018-Oct-16 15:00N 37°56' E 023°37'0 0.1
2018-Oct-16 14:01N 37°56' E 023°37'0 0.0
2018-Oct-16 13:58N 37°56' E 023°37'0 0.0
2018-Oct-16 13:28N 37°56' E 023°37'0 0.0
2018-Oct-16 13:01N 37°56' E 023°37'0 0.0
2018-Oct-16 12:58N 37°56' E 023°37'0 0.0
2018-Oct-16 12:28N 37°56' E 023°37'0 0.0
2018-Oct-16 12:01N 37°56' E 023°37'0 0.0
2018-Oct-16 11:58N 37°56' E 023°37'0 0.0
2018-Oct-16 11:28N 37°56' E 023°37'0 0.0
2018-Oct-16 11:01N 37°56' E 023°37'0 0.0
2018-Oct-16 10:58N 37°56' E 023°37'0 0.0
2018-Oct-16 10:28N 37°56' E 023°37'0 0.0
2018-Oct-16 10:01N 37°56' E 023°37'0 0.0
2018-Oct-16 09:58N 37°56' E 023°37'0 0.0
2018-Oct-16 09:28N 37°56' E 023°37'0 0.0
2018-Oct-16 09:01N 37°56' E 023°37'0 0.0
2018-Oct-16 08:58N 37°56' E 023°37'0 0.0
2018-Oct-16 08:28N 37°56' E 023°37'0 0.0
2018-Oct-16 08:01N 37°56' E 023°37'0 0.0
2018-Oct-16 07:58N 37°56' E 023°37'0 0.0
2018-Oct-16 07:28N 37°56' E 023°37'0 0.0
2018-Oct-16 07:01N 37°56' E 023°37'0 0.0
2018-Oct-16 06:58N 37°56' E 023°37'0 0.0
2018-Oct-16 06:28N 37°56' E 023°37'0 0.0
2018-Oct-16 06:01N 37°56' E 023°37'0 0.0
2018-Oct-16 05:58N 37°56' E 023°37'0 0.0
2018-Oct-16 05:28N 37°56' E 023°37'0 0.0
2018-Oct-16 05:01N 37°56' E 023°37'0 0.0
2018-Oct-16 04:58N 37°56' E 023°37'0 0.0
2018-Oct-16 04:28N 37°56' E 023°37'0 0.0
2018-Oct-16 04:01N 37°56' E 023°37'0 0.0
2018-Oct-16 03:58N 37°56' E 023°37'0 0.0
2018-Oct-16 03:28N 37°56' E 023°37'0 0.0
2018-Oct-16 03:01N 37°56' E 023°37'0 0.0
2018-Oct-16 02:58N 37°56' E 023°37'0 0.0
2018-Oct-16 02:28N 37°56' E 023°37'0 0.0
2018-Oct-16 02:03N 37°56' E 023°37'0 0.0
2018-Oct-16 02:00N 37°56' E 023°37'1 2.3
2018-Oct-16 01:30N 37°55' E 023°37'612.6
2018-Oct-16 01:03N 37°50' E 023°39'114.1
2018-Oct-16 01:01N 37°50' E 023°40'713.9
2018-Oct-16 00:30N 37°43' E 023°44'613.5
2018-Oct-16 00:03N 37°37' E 023°46'113.9
2018-Oct-16 00:00N 37°37' E 023°46'713.8
2018-Oct-15 23:30N 37°30' E 023°45'812.6
2018-Oct-15 22:51N 37°22' E 023°50'1212.8
2018-Oct-15 21:54N 37°23' E 024°05'3314.2
2018-Oct-15 19:35N 37°33' E 024°44'113.4
2018-Oct-15 19:30N 37°33' E 024°45'713.5
2018-Oct-15 18:57N 37°33' E 024°55'614.1
2018-Oct-15 18:31N 37°31' E 025°02'614.1
2018-Oct-15 18:04N 37°29' E 025°10'113.9
2018-Oct-15 18:01N 37°29' E 025°11'612.9
2018-Oct-15 17:30N 37°27' E 025°19'0 0.7
2018-Oct-15 17:02N 37°27' E 025°19'0 0.4
2018-Oct-15 16:59N 37°27' E 025°19'0 0.0
2018-Oct-15 16:29N 37°27' E 025°19'0 0.0
2018-Oct-15 16:02N 37°27' E 025°19'0 0.4
2018-Oct-15 15:59N 37°27' E 025°19'0 0.0
2018-Oct-15 15:29N 37°27' E 025°19'0 0.1
2018-Oct-15 15:02N 37°27' E 025°19'0 0.2
2018-Oct-15 14:59N 37°27' E 025°19'0 0.0
2018-Oct-15 14:29N 37°27' E 025°19'0 0.0
2018-Oct-15 13:59N 37°27' E 025°19'0 0.0
2018-Oct-15 13:29N 37°27' E 025°19'0 0.1
2018-Oct-15 13:02N 37°27' E 025°19'0 0.2
2018-Oct-15 12:59N 37°27' E 025°19'0 0.1
2018-Oct-15 12:29N 37°27' E 025°19'0 0.0
2018-Oct-15 12:02N 37°27' E 025°19'0 0.1
2018-Oct-15 11:59N 37°27' E 025°19'0 0.0
2018-Oct-15 11:29N 37°27' E 025°19'0 0.0
2018-Oct-15 11:02N 37°27' E 025°19'0 0.1
2018-Oct-15 10:59N 37°27' E 025°19'0 0.1
2018-Oct-15 10:26N 37°27' E 025°19'0 0.0
2018-Oct-15 10:02N 37°27' E 025°19'0 0.2
2018-Oct-15 09:59N 37°27' E 025°19'0 0.1
2018-Oct-15 09:29N 37°27' E 025°19'0 0.0
2018-Oct-15 09:02N 37°27' E 025°19'0 0.2
2018-Oct-15 08:56N 37°27' E 025°19'0 0.1
2018-Oct-15 08:29N 37°27' E 025°19'0 0.0
2018-Oct-15 08:02N 37°27' E 025°19'0 0.1
2018-Oct-15 07:59N 37°27' E 025°19'0 0.0
2018-Oct-15 07:29N 37°27' E 025°19'0 0.0
2018-Oct-15 07:02N 37°27' E 025°19'0 0.3
2018-Oct-15 06:59N 37°27' E 025°19'0 0.0
2018-Oct-15 06:29N 37°27' E 025°19'0 0.1
2018-Oct-15 06:02N 37°27' E 025°19'0 0.7
2018-Oct-15 05:59N 37°27' E 025°19'0 0.1
2018-Oct-15 05:29N 37°27' E 025°19'0 0.0
2018-Oct-15 05:02N 37°27' E 025°19'0 0.5
2018-Oct-15 04:59N 37°27' E 025°19'0 0.1
2018-Oct-15 04:29N 37°27' E 025°19'0 0.1
2018-Oct-15 04:02N 37°27' E 025°19'0 0.4
2018-Oct-15 03:59N 37°27' E 025°19'0 0.0
2018-Oct-15 03:30N 37°27' E 025°19'0 0.8
2018-Oct-15 03:03N 37°27' E 025°19'0 6.7
2018-Oct-15 03:00N 37°28' E 025°18'5 9.5
2018-Oct-15 02:30N 37°31' E 025°23'715.3
2018-Oct-15 02:03N 37°30' E 025°31'115.4
2018-Oct-15 02:00N 37°29' E 025°32'1115.7
2018-Oct-15 01:20N 37°23' E 025°43'416.5
2018-Oct-15 01:04N 37°20' E 025°47'116.4
2018-Oct-15 01:01N 37°19' E 025°47'50916.5
2018-Oct-13 18:05N 32°56' E 034°41'416.7
2018-Oct-13 17:50N 32°55' E 034°46'517.1
2018-Oct-13 17:30N 32°54' E 034°52'715.3
2018-Oct-13 17:03N 32°51' E 034°60'  
Track history (hours):
 
Tides and Currents Weather Stations Pressure Air Temp Water Temp Dewpoint Dewpoint Depression Visibility Wind Speed Wind Dir Waves Ship Positions

Celebrity Constellation

Last reported at 2018-Oct-23 16:21 UTC. Time now 2018-Oct-24 04:37 UTC.
Position N 36°31' W 006°26'.

Length 294 m; draft 8.3 m.

Type: Passenger vessel. MMSI: 249046000.

Date/timePositionNaut miles runAvg speedWind from/ knotsBaromVisibWave heightAir tempDewpointWater temp
2018-Oct-23 16:21N 36°31' W 006°26'2 7.7
2018-Oct-23 16:02N 36°32' W 006°24'0 7.6
2018-Oct-23 15:59N 36°32' W 006°23'4 7.6
2018-Oct-23 15:30N 36°34' W 006°19'2 4.3
2018-Oct-23 15:03N 36°32' W 006°17'0 0.3
2018-Oct-23 14:59N 36°32' W 006°17'0 0.0
2018-Oct-23 14:03N 36°32' W 006°17'0 0.0
2018-Oct-23 13:24N 36°32' W 006°17'0 0.0
2018-Oct-23 12:54N 36°32' W 006°17'0 0.0
2018-Oct-23 12:30N 36°32' W 006°17'0 0.0
2018-Oct-23 12:00N 36°32' W 006°17'0 0.0
2018-Oct-23 11:27N 36°32' W 006°17'0 0.0
2018-Oct-23 11:03N 36°32' W 006°17'0 0.0
2018-Oct-23 11:00N 36°32' W 006°17'0 0.0
2018-Oct-23 10:30N 36°32' W 006°17'0 0.0
2018-Oct-23 10:03N 36°32' W 006°17'0 0.0
2018-Oct-23 09:51N 36°32' W 006°17'0 0.0
2018-Oct-23 09:23N 36°32' W 006°17'0 0.0
2018-Oct-23 08:59N 36°32' W 006°17'0 0.0
2018-Oct-23 08:29N 36°32' W 006°17'0 0.0
2018-Oct-23 08:03N 36°32' W 006°17'0 0.0
2018-Oct-23 08:00N 36°32' W 006°17'0 0.0
2018-Oct-23 07:19N 36°32' W 006°17'0 0.0
2018-Oct-23 07:01N 36°32' W 006°17'0 0.0
2018-Oct-23 06:58N 36°32' W 006°17'0 0.0
2018-Oct-23 06:28N 36°32' W 006°17'0 0.0
2018-Oct-23 06:01N 36°32' W 006°17'0 0.0
2018-Oct-23 05:58N 36°32' W 006°17'0 0.0
2018-Oct-23 05:28N 36°32' W 006°17'0 0.0
2018-Oct-23 05:03N 36°32' W 006°17'0 0.0
2018-Oct-23 05:00N 36°32' W 006°17'0 0.9
2018-Oct-23 04:30N 36°32' W 006°17'2 4.3
2018-Oct-23 04:03N 36°33' W 006°19'0 7.0
2018-Oct-23 04:00N 36°33' W 006°19'511.0
2018-Oct-23 03:30N 36°30' W 006°25'52 9.2
2018-Oct-22 21:53N 35°58' W 005°34'513.3
2018-Oct-22 21:30N 35°60' W 005°28'612.9
2018-Oct-22 21:03N 36°02' W 005°21'113.0
2018-Oct-22 21:00N 36°02' W 005°20'713.5
2018-Oct-22 20:30N 36°04' W 005°13'613.7
2018-Oct-22 20:03N 36°07' W 005°05'113.4
2018-Oct-22 20:00N 36°07' W 005°05'215 8.8
2018-Oct-21 19:44N 37°05' W 000°47'518.2
2018-Oct-21 19:27N 37°08' W 000°42'21018.3
2018-Oct-21 07:57N 38°54' E 003°08'20419.0
2018-Oct-20 21:11N 40°52' E 006°45'319.1
2018-Oct-20 21:03N 40°54' E 006°48'118.9
2018-Oct-20 21:00N 40°54' E 006°49'8118.7
2018-Oct-20 16:39N 41°42' E 008°17'318.9
2018-Oct-20 16:30N 41°43' E 008°20'818.8
2018-Oct-20 16:03N 41°47' E 008°30'119.1
2018-Oct-20 16:00N 41°48' E 008°31'1317.6
2018-Oct-20 15:17N 41°55' E 008°45'1 2.4
2018-Oct-20 14:56N 41°55' E 008°44'6 0.5
2018-Oct-20 03:17N 41°50' E 008°40'313.7
2018-Oct-20 03:03N 41°48' E 008°38'114.3
2018-Oct-20 03:00N 41°47' E 008°37'713.9
2018-Oct-20 02:30N 41°40' E 008°38'614.3
2018-Oct-20 02:03N 41°35' E 008°41'114.6
2018-Oct-20 02:00N 41°34' E 008°42'1014.4
2018-Oct-20 01:17N 41°25' E 008°49'6413.4
2018-Oct-19 20:28N 41°33' E 010°14'4914.8
2018-Oct-19 17:11N 41°55' E 011°13'122 5.5
2018-Oct-18 18:57N 40°52' E 013°32'817.8
2018-Oct-18 18:29N 40°46' E 013°40'818.0
2018-Oct-18 18:03N 40°41' E 013°47'118.0
2018-Oct-18 18:00N 40°40' E 013°48'917.2
2018-Oct-18 17:30N 40°39' E 013°60'716.4
2018-Oct-18 17:04N 40°42' E 014°08'117.6
2018-Oct-18 17:01N 40°42' E 014°09'816.4
2018-Oct-18 16:30N 40°48' E 014°17'2 3.8
2018-Oct-18 16:01N 40°50' E 014°16'0 0.0
2018-Oct-18 15:58N 40°50' E 014°16'0 0.0
2018-Oct-18 15:28N 40°50' E 014°16'0 0.0
2018-Oct-18 15:01N 40°50' E 014°16'0 0.0
2018-Oct-18 14:58N 40°50' E 014°16'0 0.0
2018-Oct-18 14:01N 40°50' E 014°16'0 0.0
2018-Oct-18 13:58N 40°50' E 014°16'0 0.0
2018-Oct-18 13:28N 40°50' E 014°16'0 0.0
2018-Oct-18 13:01N 40°50' E 014°16'0 0.0
2018-Oct-18 12:58N 40°50' E 014°16'0 0.0
2018-Oct-18 12:28N 40°50' E 014°16'0 0.0
2018-Oct-18 12:01N 40°50' E 014°16'0 0.0
2018-Oct-18 11:58N 40°50' E 014°16'0 0.0
2018-Oct-18 11:28N 40°50' E 014°16'0 0.0
2018-Oct-18 11:01N 40°50' E 014°16'0 0.0
2018-Oct-18 10:58N 40°50' E 014°16'0 0.0
2018-Oct-18 10:25N 40°50' E 014°16'0 0.0
2018-Oct-18 10:01N 40°50' E 014°16'0 0.0
2018-Oct-18 09:58N 40°50' E 014°16'0 0.0
2018-Oct-18 09:28N 40°50' E 014°16'0 0.0
2018-Oct-18 09:03N 40°50' E 014°16'0 0.0
2018-Oct-18 09:00N 40°50' E 014°16'0 0.0
2018-Oct-18 08:29N 40°50' E 014°16'0 0.0
2018-Oct-18 08:02N 40°50' E 014°16'0 0.0
2018-Oct-18 07:59N 40°50' E 014°16'0 0.0
2018-Oct-18 07:29N 40°50' E 014°16'0 0.0
2018-Oct-18 07:02N 40°50' E 014°16'0 0.0
2018-Oct-18 06:56N 40°50' E 014°16'0 0.0
2018-Oct-18 06:29N 40°50' E 014°16'0 0.0
2018-Oct-18 06:02N 40°50' E 014°16'0 0.0
2018-Oct-18 05:59N 40°50' E 014°16'0 0.0
2018-Oct-18 05:29N 40°50' E 014°16'0 0.0
2018-Oct-18 05:02N 40°50' E 014°16'0 0.0
2018-Oct-18 04:59N 40°50' E 014°16'0 0.1
2018-Oct-18 04:30N 40°50' E 014°16'1 2.9
2018-Oct-18 04:03N 40°49' E 014°17'0 8.1
2018-Oct-18 04:01N 40°49' E 014°17'816.1
2018-Oct-18 03:31N 40°41' E 014°17'916.9
2018-Oct-18 02:59N 40°32' E 014°19'918.4
2018-Oct-18 02:31N 40°25' E 014°24'818.1
2018-Oct-18 02:04N 40°17' E 014°29'117.9
2018-Oct-18 02:01N 40°16' E 014°29'917.7
2018-Oct-18 01:30N 40°08' E 014°34'817.8
2018-Oct-18 01:03N 40°01' E 014°38'118.2
2018-Oct-18 01:01N 40°00' E 014°39'9318.1
2018-Oct-17 19:51N 38°37' E 015°33'718.7
2018-Oct-17 19:29N 38°31' E 015°37'818.7
2018-Oct-17 19:03N 38°23' E 015°40'118.6
2018-Oct-17 19:00N 38°22' E 015°41'912.2
2018-Oct-17 18:18N 38°14' E 015°37'416.1
2018-Oct-17 18:03N 38°10' E 015°38'0 6.4
2018-Oct-17 18:00N 38°10' E 015°38'1 1.3
2018-Oct-17 17:31N 38°09' E 015°38'4 8.2
2018-Oct-17 17:02N 38°06' E 015°36'117.5
2018-Oct-17 17:00N 38°05' E 015°36'917.0
2018-Oct-17 16:30N 37°56' E 015°36'1016.2
2018-Oct-17 15:52N 37°51' E 015°47'617.4
2018-Oct-17 15:30N 37°50' E 015°55'37016.8
2018-Oct-16 17:31N 37°16' E 023°40'020.3
2018-Oct-16 17:30N 37°16' E 023°40'1518.8
2018-Oct-16 16:43N 37°31' E 023°42'418.7
2018-Oct-16 16:30N 37°35' E 023°42'818.3
2018-Oct-16 16:03N 37°43' E 023°40'118.8
2018-Oct-16 16:00N 37°44' E 023°39'918.5
2018-Oct-16 15:30N 37°53' E 023°36'4 8.3
2018-Oct-16 15:03N 37°56' E 023°37'0 1.2
2018-Oct-16 15:00N 37°56' E 023°37'0 0.1
2018-Oct-16 14:01N 37°56' E 023°37'0 0.0
2018-Oct-16 13:58N 37°56' E 023°37'0 0.0
2018-Oct-16 13:28N 37°56' E 023°37'0 0.0
2018-Oct-16 13:01N 37°56' E 023°37'0 0.0
2018-Oct-16 12:58N 37°56' E 023°37'0 0.0
2018-Oct-16 12:28N 37°56' E 023°37'0 0.0
2018-Oct-16 12:01N 37°56' E 023°37'0 0.0
2018-Oct-16 11:58N 37°56' E 023°37'0 0.0
2018-Oct-16 11:28N 37°56' E 023°37'0 0.0
2018-Oct-16 11:01N 37°56' E 023°37'0 0.0
2018-Oct-16 10:58N 37°56' E 023°37'0 0.0
2018-Oct-16 10:28N 37°56' E 023°37'0 0.0
2018-Oct-16 10:01N 37°56' E 023°37'0 0.0
2018-Oct-16 09:58N 37°56' E 023°37'0 0.0
2018-Oct-16 09:28N 37°56' E 023°37'0 0.0
2018-Oct-16 09:01N 37°56' E 023°37'0 0.0
2018-Oct-16 08:58N 37°56' E 023°37'0 0.0
2018-Oct-16 08:28N 37°56' E 023°37'0 0.0
2018-Oct-16 08:01N 37°56' E 023°37'0 0.0
2018-Oct-16 07:58N 37°56' E 023°37'0 0.0
2018-Oct-16 07:28N 37°56' E 023°37'0 0.0
2018-Oct-16 07:01N 37°56' E 023°37'0 0.0
2018-Oct-16 06:58N 37°56' E 023°37'0 0.0
2018-Oct-16 06:28N 37°56' E 023°37'0 0.0
2018-Oct-16 06:01N 37°56' E 023°37'0 0.0
2018-Oct-16 05:58N 37°56' E 023°37'0 0.0
2018-Oct-16 05:28N 37°56' E 023°37'0 0.0
2018-Oct-16 05:01N 37°56' E 023°37'0 0.0
2018-Oct-16 04:58N 37°56' E 023°37'0 0.0
2018-Oct-16 04:28N 37°56' E 023°37'0 0.0
2018-Oct-16 04:01N 37°56' E 023°37'0 0.0
2018-Oct-16 03:58N 37°56' E 023°37'0 0.0
2018-Oct-16 03:28N 37°56' E 023°37'0 0.0
2018-Oct-16 03:01N 37°56' E 023°37'0 0.0
2018-Oct-16 02:58N 37°56' E 023°37'0 0.0
2018-Oct-16 02:28N 37°56' E 023°37'0 0.0
2018-Oct-16 02:03N 37°56' E 023°37'0 0.0
2018-Oct-16 02:00N 37°56' E 023°37'1 2.3
2018-Oct-16 01:30N 37°55' E 023°37'612.6
2018-Oct-16 01:03N 37°50' E 023°39'114.1
2018-Oct-16 01:01N 37°50' E 023°40'713.9
2018-Oct-16 00:30N 37°43' E 023°44'613.5
2018-Oct-16 00:03N 37°37' E 023°46'113.9
2018-Oct-16 00:00N 37°37' E 023°46'713.8
2018-Oct-15 23:30N 37°30' E 023°45'812.6
2018-Oct-15 22:51N 37°22' E 023°50'1212.8
2018-Oct-15 21:54N 37°23' E 024°05'3314.2
2018-Oct-15 19:35N 37°33' E 024°44'113.4
2018-Oct-15 19:30N 37°33' E 024°45'713.5
2018-Oct-15 18:57N 37°33' E 024°55'614.1
2018-Oct-15 18:31N 37°31' E 025°02'614.1
2018-Oct-15 18:04N 37°29' E 025°10'113.9
2018-Oct-15 18:01N 37°29' E 025°11'612.9
2018-Oct-15 17:30N 37°27' E 025°19'0 0.7
2018-Oct-15 17:02N 37°27' E 025°19'0 0.4
2018-Oct-15 16:59N 37°27' E 025°19'0 0.0
2018-Oct-15 16:29N 37°27' E 025°19'0 0.0
2018-Oct-15 16:02N 37°27' E 025°19'0 0.4
2018-Oct-15 15:59N 37°27' E 025°19'0 0.0
2018-Oct-15 15:29N 37°27' E 025°19'0 0.1
2018-Oct-15 15:02N 37°27' E 025°19'0 0.2
2018-Oct-15 14:59N 37°27' E 025°19'0 0.0
2018-Oct-15 14:29N 37°27' E 025°19'0 0.0
2018-Oct-15 13:59N 37°27' E 025°19'0 0.0
2018-Oct-15 13:29N 37°27' E 025°19'0 0.1
2018-Oct-15 13:02N 37°27' E 025°19'0 0.2
2018-Oct-15 12:59N 37°27' E 025°19'0 0.1
2018-Oct-15 12:29N 37°27' E 025°19'0 0.0
2018-Oct-15 12:02N 37°27' E 025°19'0 0.1
2018-Oct-15 11:59N 37°27' E 025°19'0 0.0
2018-Oct-15 11:29N 37°27' E 025°19'0 0.0
2018-Oct-15 11:02N 37°27' E 025°19'0 0.1
2018-Oct-15 10:59N 37°27' E 025°19'0 0.1
2018-Oct-15 10:26N 37°27' E 025°19'0 0.0
2018-Oct-15 10:02N 37°27' E 025°19'0 0.2
2018-Oct-15 09:59N 37°27' E 025°19'0 0.1
2018-Oct-15 09:29N 37°27' E 025°19'0 0.0
2018-Oct-15 09:02N 37°27' E 025°19'0 0.2
2018-Oct-15 08:56N 37°27' E 025°19'0 0.1
2018-Oct-15 08:29N 37°27' E 025°19'0 0.0
2018-Oct-15 08:02N 37°27' E 025°19'0 0.1
2018-Oct-15 07:59N 37°27' E 025°19'0 0.0
2018-Oct-15 07:29N 37°27' E 025°19'0 0.0
2018-Oct-15 07:02N 37°27' E 025°19'0 0.3
2018-Oct-15 06:59N 37°27' E 025°19'0 0.0
2018-Oct-15 06:29N 37°27' E 025°19'0 0.1
2018-Oct-15 06:02N 37°27' E 025°19'0 0.7
2018-Oct-15 05:59N 37°27' E 025°19'0 0.1
2018-Oct-15 05:29N 37°27' E 025°19'0 0.0
2018-Oct-15 05:02N 37°27' E 025°19'0 0.5
2018-Oct-15 04:59N 37°27' E 025°19'0 0.1
2018-Oct-15 04:29N 37°27' E 025°19'0 0.1
2018-Oct-15 04:02N 37°27' E 025°19'0 0.4
2018-Oct-15 03:59N 37°27' E 025°19'0 0.0
2018-Oct-15 03:30N 37°27' E 025°19'0 0.8
2018-Oct-15 03:03N 37°27' E 025°19'0 6.7
2018-Oct-15 03:00N 37°28' E 025°18'5 9.5
2018-Oct-15 02:30N 37°31' E 025°23'715.3
2018-Oct-15 02:03N 37°30' E 025°31'115.4
2018-Oct-15 02:00N 37°29' E 025°32'1115.7
2018-Oct-15 01:20N 37°23' E 025°43'416.5
2018-Oct-15 01:04N 37°20' E 025°47'116.4
2018-Oct-15 01:01N 37°19' E 025°47'50916.5
2018-Oct-13 18:05N 32°56' E 034°41'416.7
2018-Oct-13 17:50N 32°55' E 034°46'517.1
2018-Oct-13 17:30N 32°54' E 034°52'715.3
2018-Oct-13 17:03N 32°51' E 034°60'  

Dump ship's entire track history